GIA350 LDZA-GCLP
Flight info
| Callsign | GIA350 |
|---|---|
| Flight time | N/A |
| Altitude | 36000 |
| Route | KOTOR DCT ROTAR/N0472F370 DCT IDONA DCT PIDAD DCT TALEP DCT RARQU DCT BALEN DCT SORAS N850 ADX Z237 OKITI M603 ALT N851 VJF L82 RUNAX UL82 IBALU UN857 TERTO |
| Aircraft | A339/H-SADE1E2E3GHIJ3J5M1P2RWXY/LB2D1 |
Departure
| Time | 2026-05-08 03:53 |
|---|---|
| Airport | Zagreb Franjo Tuđman International Airport (LDZA) |
Arrival
| Time | N/A |
|---|---|
| Airport | Gran Canaria Airport (GCLP) |
| Time | Latitude | Longitude | Altitude | Speed | Heading |
|---|---|---|---|---|---|
| 2026-05-08 03:53 | 45.68850 | 15.98560 | 3126 ft | 235 kts | 230° |
| 2026-05-08 03:53 | 45.67748 | 15.96700 | 3476 ft | 251 kts | 231° |
| 2026-05-08 03:53 | 45.66593 | 15.94731 | 3738 ft | 266 kts | 230° |
| 2026-05-08 03:53 | 45.65399 | 15.92701 | 4304 ft | 267 kts | 230° |
| 2026-05-08 03:54 | 45.64196 | 15.90658 | 4874 ft | 270 kts | 230° |
| 2026-05-08 03:54 | 45.62984 | 15.88604 | 5446 ft | 271 kts | 230° |
| 2026-05-08 03:54 | 45.61765 | 15.86541 | 6036 ft | 272 kts | 230° |
| 2026-05-08 03:54 | 45.60541 | 15.84469 | 6632 ft | 274 kts | 230° |
| 2026-05-08 03:55 | 45.59308 | 15.82393 | 7182 ft | 275 kts | 230° |
| 2026-05-08 03:55 | 45.58059 | 15.80317 | 7763 ft | 276 kts | 230° |
| 2026-05-08 03:55 | 45.56805 | 15.78239 | 8366 ft | 277 kts | 230° |
| 2026-05-08 03:55 | 45.55546 | 15.76153 | 8950 ft | 278 kts | 230° |
| 2026-05-08 03:56 | 45.54281 | 15.74054 | 9549 ft | 279 kts | 230° |
| 2026-05-08 03:56 | 45.53013 | 15.71952 | 10151 ft | 280 kts | 230° |
| 2026-05-08 03:56 | 45.51710 | 15.69789 | 10350 ft | 296 kts | 230° |
| 2026-05-08 03:56 | 45.50332 | 15.67502 | 10504 ft | 312 kts | 230° |
| 2026-05-08 03:57 | 45.48884 | 15.65101 | 10667 ft | 327 kts | 230° |
| 2026-05-08 03:57 | 45.47390 | 15.62630 | 11116 ft | 331 kts | 230° |
| 2026-05-08 03:57 | 45.45975 | 15.60038 | 11584 ft | 333 kts | 239° |
| 2026-05-08 03:57 | 45.44945 | 15.57089 | 12105 ft | 334 kts | 249° |
| 2026-05-08 03:58 | 45.44212 | 15.53936 | 12587 ft | 337 kts | 255° |
| 2026-05-08 03:58 | 45.43727 | 15.50655 | 13087 ft | 340 kts | 261° |
| 2026-05-08 03:58 | 45.43487 | 15.47298 | 13571 ft | 343 kts | 266° |
| 2026-05-08 03:58 | 45.43333 | 15.43944 | 14030 ft | 345 kts | 266° |
| 2026-05-08 03:59 | 45.43149 | 15.40525 | 14492 ft | 347 kts | 265° |
| 2026-05-08 03:59 | 45.42950 | 15.37104 | 14969 ft | 348 kts | 265° |
| 2026-05-08 03:59 | 45.42744 | 15.33656 | 15439 ft | 350 kts | 265° |
| 2026-05-08 03:59 | 45.42534 | 15.30191 | 15879 ft | 352 kts | 265° |
| 2026-05-08 04:00 | 45.42323 | 15.26711 | 16338 ft | 354 kts | 265° |
| 2026-05-08 04:00 | 45.42110 | 15.23208 | 16791 ft | 356 kts | 265° |
| 2026-05-08 04:00 | 45.41895 | 15.19693 | 17230 ft | 358 kts | 265° |
| 2026-05-08 04:00 | 45.41678 | 15.16151 | 17683 ft | 360 kts | 265° |
| 2026-05-08 04:01 | 45.41459 | 15.12590 | 18111 ft | 362 kts | 265° |
| 2026-05-08 04:01 | 45.41237 | 15.09012 | 18539 ft | 364 kts | 265° |
| 2026-05-08 04:01 | 45.41013 | 15.05418 | 18976 ft | 365 kts | 265° |
| 2026-05-08 04:01 | 45.40788 | 15.01821 | 19410 ft | 366 kts | 265° |
| 2026-05-08 04:02 | 45.40560 | 14.98213 | 19830 ft | 367 kts | 264° |
| 2026-05-08 04:02 | 45.40331 | 14.94596 | 20248 ft | 368 kts | 264° |
| 2026-05-08 04:02 | 45.40099 | 14.90965 | 20677 ft | 369 kts | 264° |
| 2026-05-08 04:02 | 45.39866 | 14.87323 | 21103 ft | 370 kts | 264° |
| 2026-05-08 04:03 | 45.39631 | 14.83669 | 21534 ft | 371 kts | 264° |
| 2026-05-08 04:03 | 45.39159 | 14.76323 | 22393 ft | 374 kts | 264° |
| 2026-05-08 04:03 | 45.38921 | 14.72636 | 22827 ft | 375 kts | 264° |
| 2026-05-08 04:04 | 45.38676 | 14.68931 | 23242 ft | 377 kts | 264° |
| 2026-05-08 04:04 | 45.38430 | 14.65207 | 23668 ft | 379 kts | 264° |
| 2026-05-08 04:04 | 45.38182 | 14.61473 | 24031 ft | 380 kts | 264° |
| 2026-05-08 04:04 | 45.37932 | 14.57728 | 24417 ft | 381 kts | 264° |
| 2026-05-08 04:05 | 45.37682 | 14.53980 | 24806 ft | 382 kts | 264° |
| 2026-05-08 04:05 | 45.37430 | 14.50222 | 25225 ft | 381 kts | 264° |
| 2026-05-08 04:05 | 45.37177 | 14.46463 | 25583 ft | 383 kts | 264° |
| 2026-05-08 04:05 | 45.36920 | 14.42687 | 25942 ft | 384 kts | 264° |
| 2026-05-08 04:06 | 45.36663 | 14.38907 | 26308 ft | 385 kts | 264° |
| 2026-05-08 04:06 | 45.36403 | 14.35110 | 26682 ft | 386 kts | 263° |
| 2026-05-08 04:06 | 45.36142 | 14.31311 | 27050 ft | 387 kts | 263° |
| 2026-05-08 04:06 | 45.35877 | 14.27493 | 27358 ft | 389 kts | 263° |
| 2026-05-08 04:07 | 45.35610 | 14.23668 | 27722 ft | 389 kts | 263° |
| 2026-05-08 04:07 | 45.35343 | 14.19837 | 28058 ft | 390 kts | 263° |
| 2026-05-08 04:07 | 45.35073 | 14.15985 | 28387 ft | 392 kts | 263° |
| 2026-05-08 04:07 | 45.34802 | 14.12128 | 28713 ft | 394 kts | 263° |
| 2026-05-08 04:08 | 45.34527 | 14.08251 | 29063 ft | 394 kts | 263° |
| 2026-05-08 04:08 | 45.34250 | 14.04363 | 29390 ft | 396 kts | 263° |
| 2026-05-08 04:08 | 45.33972 | 14.00468 | 29660 ft | 398 kts | 263° |
| 2026-05-08 04:08 | 45.33691 | 13.96549 | 29999 ft | 399 kts | 263° |
| 2026-05-08 04:09 | 45.33409 | 13.92626 | 30287 ft | 400 kts | 263° |
| 2026-05-08 04:09 | 45.33123 | 13.88690 | 30562 ft | 401 kts | 263° |
| 2026-05-08 04:09 | 45.32835 | 13.84739 | 30844 ft | 402 kts | 262° |
| 2026-05-08 04:09 | 45.32549 | 13.80833 | 31126 ft | 403 kts | 262° |
| 2026-05-08 04:10 | 45.32256 | 13.76859 | 31369 ft | 405 kts | 262° |
| 2026-05-08 04:10 | 45.31960 | 13.72869 | 31639 ft | 407 kts | 262° |
| 2026-05-08 04:10 | 45.31663 | 13.68872 | 31902 ft | 408 kts | 262° |
| 2026-05-08 04:10 | 45.31363 | 13.64856 | 32156 ft | 410 kts | 262° |
| 2026-05-08 04:11 | 45.31060 | 13.60826 | 32413 ft | 411 kts | 262° |
| 2026-05-08 04:11 | 45.30755 | 13.56785 | 32634 ft | 412 kts | 262° |
| 2026-05-08 04:11 | 45.30448 | 13.52735 | 32839 ft | 413 kts | 262° |
| 2026-05-08 04:11 | 45.30139 | 13.48674 | 33007 ft | 414 kts | 261° |
| 2026-05-08 04:12 | 45.29828 | 13.44603 | 33161 ft | 415 kts | 261° |
| 2026-05-08 04:12 | 45.29514 | 13.40522 | 33333 ft | 416 kts | 261° |
| 2026-05-08 04:12 | 45.29199 | 13.36438 | 33457 ft | 417 kts | 261° |
| 2026-05-08 04:12 | 45.28881 | 13.32344 | 33593 ft | 417 kts | 261° |
| 2026-05-08 04:13 | 45.28561 | 13.28244 | 33750 ft | 417 kts | 261° |
| 2026-05-08 04:13 | 45.28241 | 13.24153 | 33925 ft | 417 kts | 261° |
| 2026-05-08 04:13 | 45.27920 | 13.20068 | 34092 ft | 416 kts | 261° |
| 2026-05-08 04:13 | 45.27597 | 13.15978 | 34190 ft | 417 kts | 261° |
| 2026-05-08 04:14 | 45.27272 | 13.11888 | 34311 ft | 417 kts | 261° |
| 2026-05-08 04:14 | 45.26945 | 13.07788 | 34423 ft | 418 kts | 261° |
| 2026-05-08 04:14 | 45.25797 | 12.99732 | 34622 ft | 416 kts | 252° |
| 2026-05-08 04:15 | 45.24893 | 12.95833 | 34735 ft | 416 kts | 248° |
| 2026-05-08 04:15 | 45.23774 | 12.92042 | 34828 ft | 416 kts | 244° |
| 2026-05-08 04:15 | 45.21250 | 12.84649 | 35030 ft | 417 kts | 244° |
| 2026-05-08 04:16 | 45.18746 | 12.77212 | 35238 ft | 418 kts | 244° |
| 2026-05-08 04:16 | 45.17491 | 12.73490 | 35344 ft | 419 kts | 244° |
| 2026-05-08 04:16 | 45.16233 | 12.69770 | 35449 ft | 419 kts | 244° |
| 2026-05-08 04:17 | 45.13706 | 12.62325 | 35644 ft | 420 kts | 244° |
| 2026-05-08 04:17 | 45.12437 | 12.58597 | 35748 ft | 420 kts | 244° |
| 2026-05-08 04:17 | 45.11166 | 12.54866 | 35844 ft | 421 kts | 244° |
| 2026-05-08 04:18 | 45.09050 | 12.48669 | 35998 ft | 421 kts | 243° |
| 2026-05-08 04:18 | 45.06498 | 12.41209 | 36031 ft | 420 kts | 243° |
| 2026-05-08 04:19 | 45.03945 | 12.33773 | 36031 ft | 421 kts | 243° |
| 2026-05-08 04:19 | 45.01386 | 12.26337 | 36033 ft | 421 kts | 243° |
| 2026-05-08 04:20 | 44.98821 | 12.18904 | 36028 ft | 421 kts | 243° |
| 2026-05-08 04:20 | 44.96251 | 12.11477 | 36043 ft | 421 kts | 243° |
| 2026-05-08 04:21 | 44.93674 | 12.04053 | 36044 ft | 421 kts | 243° |
| 2026-05-08 04:21 | 44.91092 | 11.96634 | 36041 ft | 421 kts | 243° |
| 2026-05-08 04:22 | 44.88502 | 11.89211 | 36017 ft | 422 kts | 243° |
| 2026-05-08 04:22 | 44.85909 | 11.81800 | 36013 ft | 422 kts | 243° |
| 2026-05-08 04:23 | 44.83309 | 11.74391 | 36021 ft | 422 kts | 243° |
| 2026-05-08 04:23 | 44.80704 | 11.66987 | 36027 ft | 422 kts | 243° |
| 2026-05-08 04:24 | 44.78092 | 11.59586 | 36030 ft | 422 kts | 243° |
| 2026-05-08 04:24 | 44.75475 | 11.52189 | 36028 ft | 422 kts | 243° |
| 2026-05-08 04:25 | 44.72854 | 11.44798 | 36024 ft | 422 kts | 243° |
| 2026-05-08 04:25 | 44.70226 | 11.37411 | 36019 ft | 423 kts | 242° |
| 2026-05-08 04:26 | 44.67594 | 11.30034 | 36023 ft | 427 kts | 242° |
| 2026-05-08 04:26 | 44.64917 | 11.22547 | 36023 ft | 430 kts | 242° |
| 2026-05-08 04:27 | 44.62220 | 11.15027 | 36025 ft | 432 kts | 242° |
| 2026-05-08 04:27 | 44.59506 | 11.07483 | 36027 ft | 434 kts | 242° |
| 2026-05-08 04:28 | 44.56781 | 10.99926 | 36025 ft | 434 kts | 242° |
| 2026-05-08 04:28 | 44.54046 | 10.92363 | 36029 ft | 435 kts | 242° |
| 2026-05-08 04:29 | 44.51305 | 10.84802 | 36032 ft | 435 kts | 242° |
| 2026-05-08 04:29 | 44.48555 | 10.77241 | 36037 ft | 436 kts | 242° |
| 2026-05-08 04:30 | 44.45799 | 10.69683 | 36034 ft | 436 kts | 242° |
| 2026-05-08 04:30 | 44.43037 | 10.62127 | 36037 ft | 436 kts | 242° |
| 2026-05-08 04:31 | 44.40268 | 10.54576 | 36034 ft | 436 kts | 242° |
| 2026-05-08 04:31 | 44.37494 | 10.47030 | 36028 ft | 436 kts | 242° |
| 2026-05-08 04:32 | 44.34717 | 10.39500 | 36031 ft | 435 kts | 242° |
| 2026-05-08 04:32 | 44.31936 | 10.31976 | 36019 ft | 436 kts | 242° |
| 2026-05-08 04:33 | 44.29152 | 10.24465 | 36001 ft | 435 kts | 242° |
| 2026-05-08 04:33 | 44.26363 | 10.16962 | 35989 ft | 436 kts | 242° |
| 2026-05-08 04:34 | 44.23570 | 10.09463 | 35982 ft | 436 kts | 242° |
| 2026-05-08 04:34 | 44.20767 | 10.01963 | 35972 ft | 436 kts | 241° |
| 2026-05-08 04:35 | 44.17960 | 9.94478 | 35968 ft | 435 kts | 241° |
| 2026-05-08 04:35 | 44.15172 | 9.87056 | 35968 ft | 436 kts | 241° |
| 2026-05-08 04:36 | 44.12358 | 9.79585 | 35976 ft | 436 kts | 241° |
| 2026-05-08 04:36 | 44.09536 | 9.72116 | 35972 ft | 436 kts | 241° |
| 2026-05-08 04:37 | 44.06705 | 9.64640 | 35976 ft | 437 kts | 241° |
| 2026-05-08 04:37 | 44.03870 | 9.57173 | 35980 ft | 437 kts | 241° |
| 2026-05-08 04:38 | 44.01031 | 9.49711 | 35982 ft | 437 kts | 241° |
| 2026-05-08 04:38 | 43.98105 | 9.42319 | 35983 ft | 437 kts | 238° |
| 2026-05-08 04:39 | 43.94695 | 9.35342 | 35984 ft | 437 kts | 235° |
| 2026-05-08 04:39 | 43.91271 | 9.28381 | 35982 ft | 437 kts | 236° |
| 2026-05-08 04:40 | 43.87848 | 9.21418 | 35987 ft | 437 kts | 236° |
| 2026-05-08 04:40 | 43.84414 | 9.14460 | 35985 ft | 437 kts | 236° |
| 2026-05-08 04:41 | 43.80977 | 9.07515 | 35985 ft | 437 kts | 236° |
| 2026-05-08 04:41 | 43.77536 | 9.00578 | 35982 ft | 437 kts | 236° |
| 2026-05-08 04:42 | 43.74089 | 8.93647 | 35989 ft | 437 kts | 236° |
| 2026-05-08 04:42 | 43.70640 | 8.86727 | 35993 ft | 437 kts | 236° |
| 2026-05-08 04:43 | 43.67100 | 8.79914 | 35987 ft | 437 kts | 229° |
| 2026-05-08 04:43 | 43.62401 | 8.74613 | 35992 ft | 441 kts | 212° |
| 2026-05-08 04:44 | 43.56666 | 8.71660 | 35991 ft | 449 kts | 194° |
| 2026-05-08 04:44 | 43.50378 | 8.71120 | 35982 ft | 452 kts | 190° |
| 2026-05-08 04:45 | 43.47312 | 8.70341 | 35989 ft | 445 kts | 201° |
| 2026-05-08 04:45 | 43.44471 | 8.68742 | 35988 ft | 439 kts | 212° |
| 2026-05-08 04:45 | 43.39698 | 8.63635 | 35993 ft | 435 kts | 225° |
| 2026-05-08 04:46 | 43.35324 | 8.57891 | 35994 ft | 435 kts | 225° |
| 2026-05-08 04:46 | 43.30866 | 8.52255 | 35989 ft | 436 kts | 224° |
| 2026-05-08 04:47 | 43.26361 | 8.46696 | 35992 ft | 435 kts | 223° |
| 2026-05-08 04:47 | 43.21846 | 8.41155 | 35993 ft | 435 kts | 224° |
| 2026-05-08 04:48 | 43.17331 | 8.35622 | 35992 ft | 435 kts | 223° |
| 2026-05-08 04:48 | 43.12820 | 8.30102 | 35994 ft | 435 kts | 224° |
| 2026-05-08 04:49 | 43.08303 | 8.24586 | 35993 ft | 435 kts | 224° |
| 2026-05-08 04:49 | 43.03786 | 8.19082 | 35994 ft | 435 kts | 224° |
| 2026-05-08 04:50 | 42.99267 | 8.13588 | 35992 ft | 435 kts | 224° |
| 2026-05-08 04:50 | 42.94752 | 8.08109 | 35993 ft | 434 kts | 224° |
| 2026-05-08 04:51 | 42.90230 | 8.02633 | 35994 ft | 434 kts | 224° |
| 2026-05-08 04:51 | 42.85711 | 7.97172 | 35991 ft | 434 kts | 224° |
| 2026-05-08 04:52 | 42.81186 | 7.91715 | 35994 ft | 434 kts | 224° |
| 2026-05-08 04:52 | 42.76659 | 7.86266 | 35998 ft | 434 kts | 224° |
| 2026-05-08 04:53 | 42.72130 | 7.80827 | 35998 ft | 434 kts | 224° |
| 2026-05-08 04:53 | 42.67599 | 7.75396 | 35997 ft | 434 kts | 224° |
| 2026-05-08 04:54 | 42.63097 | 7.70011 | 35998 ft | 434 kts | 224° |
| 2026-05-08 04:54 | 42.58534 | 7.64563 | 35998 ft | 434 kts | 224° |
| 2026-05-08 04:55 | 42.54030 | 7.59197 | 35998 ft | 434 kts | 224° |
| 2026-05-08 04:55 | 42.49496 | 7.53807 | 35996 ft | 434 kts | 224° |
| 2026-05-08 04:56 | 42.44962 | 7.48426 | 35997 ft | 433 kts | 224° |
| 2026-05-08 04:56 | 42.40424 | 7.43052 | 35995 ft | 433 kts | 224° |
| 2026-05-08 04:57 | 42.35888 | 7.37690 | 35995 ft | 433 kts | 224° |
| 2026-05-08 04:57 | 42.31350 | 7.32338 | 35998 ft | 433 kts | 224° |
| 2026-05-08 04:58 | 42.26817 | 7.27001 | 36000 ft | 432 kts | 224° |
| 2026-05-08 04:58 | 42.22279 | 7.21670 | 35997 ft | 432 kts | 224° |
| 2026-05-08 04:59 | 42.17740 | 7.16348 | 36001 ft | 432 kts | 224° |
| 2026-05-08 04:59 | 42.13202 | 7.11038 | 35996 ft | 432 kts | 224° |
| 2026-05-08 05:00 | 42.08662 | 7.05735 | 35996 ft | 432 kts | 224° |
| 2026-05-08 05:00 | 42.04123 | 7.00442 | 35995 ft | 432 kts | 224° |
| 2026-05-08 05:01 | 41.99618 | 6.95122 | 35996 ft | 431 kts | 225° |
| 2026-05-08 05:01 | 41.95215 | 6.89669 | 36000 ft | 430 kts | 226° |
| 2026-05-08 05:02 | 41.90808 | 6.84233 | 35997 ft | 430 kts | 225° |
| 2026-05-08 05:02 | 41.86392 | 6.78828 | 35994 ft | 430 kts | 225° |
| 2026-05-08 05:03 | 41.81973 | 6.73436 | 35995 ft | 429 kts | 225° |
| 2026-05-08 05:03 | 41.77555 | 6.68059 | 35998 ft | 429 kts | 225° |
| 2026-05-08 05:04 | 41.73142 | 6.62694 | 36000 ft | 428 kts | 226° |
| 2026-05-08 05:04 | 41.68727 | 6.57338 | 35996 ft | 428 kts | 225° |
| 2026-05-08 05:05 | 41.64338 | 6.52023 | 35996 ft | 428 kts | 225° |
| 2026-05-08 05:05 | 41.59916 | 6.46682 | 35994 ft | 428 kts | 226° |
| 2026-05-08 05:06 | 41.55492 | 6.41345 | 35994 ft | 429 kts | 226° |
| 2026-05-08 05:06 | 41.51812 | 6.36915 | 35993 ft | 429 kts | 226° |
| 2026-05-08 05:07 | 41.47381 | 6.31590 | 35996 ft | 429 kts | 226° |
| 2026-05-08 05:07 | 41.42944 | 6.26268 | 35994 ft | 429 kts | 226° |
| 2026-05-08 05:08 | 41.38504 | 6.20952 | 36001 ft | 429 kts | 226° |
| 2026-05-08 05:08 | 41.34063 | 6.15646 | 35993 ft | 429 kts | 226° |
| 2026-05-08 05:09 | 41.29619 | 6.10346 | 36007 ft | 429 kts | 226° |
| 2026-05-08 05:09 | 41.25171 | 6.05052 | 36000 ft | 429 kts | 226° |
| 2026-05-08 05:10 | 41.18499 | 5.97128 | 35997 ft | 429 kts | 226° |
| 2026-05-08 05:11 | 41.14049 | 5.91857 | 36000 ft | 429 kts | 226° |
| 2026-05-08 05:11 | 41.09600 | 5.86595 | 35997 ft | 428 kts | 226° |
| 2026-05-08 05:12 | 41.05149 | 5.81343 | 36002 ft | 428 kts | 226° |
| 2026-05-08 05:12 | 41.00700 | 5.76101 | 35997 ft | 428 kts | 226° |
| 2026-05-08 05:13 | 40.96427 | 5.70670 | 36002 ft | 424 kts | 232° |
| 2026-05-08 05:13 | 40.92997 | 5.64459 | 35996 ft | 420 kts | 242° |
| 2026-05-08 05:14 | 40.90326 | 5.57623 | 36003 ft | 418 kts | 245° |
| 2026-05-08 05:14 | 40.87732 | 5.50746 | 35995 ft | 418 kts | 245° |
| 2026-05-08 05:15 | 40.85114 | 5.43881 | 36001 ft | 418 kts | 245° |
| 2026-05-08 05:15 | 40.82492 | 5.37029 | 35997 ft | 418 kts | 245° |
| 2026-05-08 05:16 | 40.79865 | 5.30177 | 36001 ft | 418 kts | 245° |
| 2026-05-08 05:16 | 40.77236 | 5.23338 | 35998 ft | 418 kts | 245° |
| 2026-05-08 05:17 | 40.74604 | 5.16504 | 35998 ft | 418 kts | 245° |
| 2026-05-08 05:17 | 40.71969 | 5.09678 | 35993 ft | 418 kts | 245° |
| 2026-05-08 05:18 | 40.69331 | 5.02860 | 35996 ft | 417 kts | 245° |
| 2026-05-08 05:18 | 40.66689 | 4.96050 | 35993 ft | 417 kts | 245° |
| 2026-05-08 05:19 | 40.64045 | 4.89248 | 35998 ft | 417 kts | 245° |
| 2026-05-08 05:19 | 40.61399 | 4.82457 | 35995 ft | 417 kts | 245° |
| 2026-05-08 05:20 | 40.58765 | 4.75713 | 35998 ft | 417 kts | 245° |
| 2026-05-08 05:20 | 40.56111 | 4.68932 | 35991 ft | 417 kts | 245° |
| 2026-05-08 05:21 | 40.53454 | 4.62157 | 35985 ft | 417 kts | 245° |
| 2026-05-08 05:21 | 40.50793 | 4.55389 | 35983 ft | 417 kts | 244° |
| 2026-05-08 05:22 | 40.48129 | 4.48626 | 35998 ft | 417 kts | 244° |
| 2026-05-08 05:22 | 40.45463 | 4.41872 | 35990 ft | 417 kts | 244° |
| 2026-05-08 05:23 | 40.42790 | 4.35120 | 35994 ft | 416 kts | 244° |
| 2026-05-08 05:23 | 40.40117 | 4.28379 | 35988 ft | 416 kts | 244° |
| 2026-05-08 05:24 | 40.37441 | 4.21647 | 35998 ft | 416 kts | 244° |
| 2026-05-08 05:24 | 40.34762 | 4.14923 | 35992 ft | 416 kts | 244° |
| 2026-05-08 05:25 | 40.32078 | 4.08204 | 35993 ft | 416 kts | 244° |
| 2026-05-08 05:25 | 40.29393 | 4.01494 | 35989 ft | 416 kts | 244° |
| 2026-05-08 05:26 | 40.26702 | 3.94786 | 35993 ft | 416 kts | 244° |
| 2026-05-08 05:26 | 40.24005 | 3.88076 | 35990 ft | 416 kts | 244° |
| 2026-05-08 05:27 | 40.21305 | 3.81376 | 35830 ft | 416 kts | 244° |
| 2026-05-08 05:27 | 40.19949 | 3.78048 | 35992 ft | 412 kts | 246° |
| 2026-05-08 05:27 | 40.18606 | 3.74735 | 35988 ft | 412 kts | 246° |
| 2026-05-08 05:28 | 40.15948 | 3.68153 | 35986 ft | 412 kts | 245° |
| 2026-05-08 05:28 | 40.13260 | 3.61535 | 35984 ft | 412 kts | 245° |
| 2026-05-08 05:29 | 40.10566 | 3.54921 | 35990 ft | 412 kts | 245° |
| 2026-05-08 05:29 | 40.07867 | 3.48308 | 35989 ft | 413 kts | 245° |
| 2026-05-08 05:30 | 40.05167 | 3.41698 | 35988 ft | 413 kts | 245° |
| 2026-05-08 05:30 | 40.02463 | 3.35093 | 35984 ft | 413 kts | 245° |
| 2026-05-08 05:31 | 39.99750 | 3.28482 | 35981 ft | 413 kts | 245° |
| 2026-05-08 05:31 | 39.97034 | 3.21878 | 35981 ft | 413 kts | 245° |
| 2026-05-08 05:32 | 39.94313 | 3.15276 | 35967 ft | 414 kts | 244° |
| 2026-05-08 05:32 | 39.91390 | 3.08812 | 35965 ft | 416 kts | 239° |
| 2026-05-08 05:33 | 39.88320 | 3.02977 | 35962 ft | 416 kts | 239° |
| 2026-05-08 05:33 | 39.85063 | 2.96747 | 35967 ft | 417 kts | 239° |
| 2026-05-08 05:34 | 39.81800 | 2.90505 | 35964 ft | 417 kts | 239° |
| 2026-05-08 05:34 | 39.78536 | 2.84272 | 35950 ft | 417 kts | 238° |
| 2026-05-08 05:35 | 39.75283 | 2.78080 | 35947 ft | 418 kts | 239° |
| 2026-05-08 05:35 | 39.71985 | 2.71809 | 35939 ft | 418 kts | 239° |
| 2026-05-08 05:36 | 39.68700 | 2.65578 | 35937 ft | 418 kts | 238° |
| 2026-05-08 05:36 | 39.65409 | 2.59353 | 35937 ft | 418 kts | 238° |
| 2026-05-08 05:37 | 39.62140 | 2.53167 | 35933 ft | 419 kts | 238° |
| 2026-05-08 05:37 | 39.58849 | 2.46951 | 35941 ft | 418 kts | 238° |
| 2026-05-08 05:38 | 39.55553 | 2.40738 | 35944 ft | 418 kts | 238° |
| 2026-05-08 05:38 | 39.52561 | 2.34309 | 35949 ft | 417 kts | 242° |
| 2026-05-08 05:39 | 39.49657 | 2.27814 | 35953 ft | 417 kts | 242° |
| 2026-05-08 05:39 | 39.46738 | 2.21328 | 35956 ft | 417 kts | 242° |
| 2026-05-08 05:40 | 39.43814 | 2.14850 | 35957 ft | 417 kts | 242° |
| 2026-05-08 05:40 | 39.40887 | 2.08378 | 35959 ft | 417 kts | 242° |
| 2026-05-08 05:41 | 39.37956 | 2.01909 | 35957 ft | 417 kts | 242° |
| 2026-05-08 05:41 | 39.35021 | 1.95446 | 35956 ft | 417 kts | 242° |
| 2026-05-08 05:42 | 39.32084 | 1.88989 | 35957 ft | 417 kts | 241° |
| 2026-05-08 05:42 | 39.29142 | 1.82537 | 35953 ft | 417 kts | 241° |
| 2026-05-08 05:43 | 39.26199 | 1.76094 | 35950 ft | 417 kts | 241° |
| 2026-05-08 05:43 | 39.23251 | 1.69657 | 35947 ft | 417 kts | 241° |
| 2026-05-08 05:44 | 39.20303 | 1.63228 | 35956 ft | 416 kts | 241° |
| 2026-05-08 05:44 | 39.17353 | 1.56810 | 35950 ft | 416 kts | 241° |
| 2026-05-08 05:45 | 39.14398 | 1.50395 | 35948 ft | 416 kts | 241° |
| 2026-05-08 05:45 | 39.11553 | 1.43921 | 35948 ft | 415 kts | 245° |
| 2026-05-08 05:46 | 39.09389 | 1.37049 | 35943 ft | 414 kts | 249° |
| 2026-05-08 05:46 | 39.07302 | 1.30141 | 35943 ft | 414 kts | 249° |
| 2026-05-08 05:47 | 39.05212 | 1.23293 | 35942 ft | 414 kts | 248° |
| 2026-05-08 05:47 | 39.03103 | 1.16407 | 35947 ft | 414 kts | 248° |
| 2026-05-08 05:48 | 39.00992 | 1.09529 | 35949 ft | 413 kts | 248° |
| 2026-05-08 05:48 | 38.98879 | 1.02660 | 35953 ft | 413 kts | 248° |
| 2026-05-08 05:49 | 38.96762 | 0.95798 | 35956 ft | 413 kts | 248° |
| 2026-05-08 05:49 | 38.94644 | 0.88943 | 35967 ft | 412 kts | 248° |
| 2026-05-08 05:50 | 38.92526 | 0.82099 | 35967 ft | 412 kts | 248° |
| 2026-05-08 05:50 | 38.90402 | 0.75258 | 35971 ft | 412 kts | 247° |
| 2026-05-08 05:51 | 38.88278 | 0.68432 | 35968 ft | 412 kts | 247° |
| 2026-05-08 05:51 | 38.86146 | 0.61598 | 35974 ft | 412 kts | 247° |
| 2026-05-08 05:52 | 38.84010 | 0.54773 | 35975 ft | 413 kts | 247° |
| 2026-05-08 05:52 | 38.81692 | 0.48044 | 35977 ft | 412 kts | 241° |
| 2026-05-08 05:53 | 38.78646 | 0.41824 | 35974 ft | 412 kts | 236° |
| 2026-05-08 05:53 | 38.75468 | 0.35707 | 35981 ft | 413 kts | 237° |
| 2026-05-08 05:54 | 38.72297 | 0.29577 | 35982 ft | 413 kts | 237° |
| 2026-05-08 05:54 | 38.69121 | 0.23450 | 35972 ft | 413 kts | 236° |
| 2026-05-08 05:55 | 38.66478 | 0.18362 | 35983 ft | 413 kts | 236° |
| 2026-05-08 05:55 | 38.63293 | 0.12242 | 35978 ft | 413 kts | 236° |
| 2026-05-08 05:56 | 38.60105 | 0.06127 | 35971 ft | 413 kts | 236° |
| 2026-05-08 05:56 | 38.56912 | 0.00015 | 35968 ft | 413 kts | 236° |
| 2026-05-08 05:57 | 38.53716 | -0.06093 | 35974 ft | 413 kts | 236° |
| 2026-05-08 05:57 | 38.50516 | -0.12195 | 35986 ft | 414 kts | 236° |
| 2026-05-08 05:58 | 38.47312 | -0.18293 | 35977 ft | 414 kts | 236° |
| 2026-05-08 05:58 | 38.44102 | -0.24393 | 35973 ft | 414 kts | 236° |
| 2026-05-08 05:59 | 38.40919 | -0.30428 | 35968 ft | 414 kts | 236° |
| 2026-05-08 05:59 | 38.37674 | -0.36571 | 35967 ft | 414 kts | 235° |
| 2026-05-08 06:00 | 38.34451 | -0.42659 | 35967 ft | 414 kts | 235° |
| 2026-05-08 06:00 | 38.31226 | -0.48741 | 35966 ft | 414 kts | 235° |
| 2026-05-08 06:01 | 38.28001 | -0.54818 | 35966 ft | 414 kts | 236° |
| 2026-05-08 06:01 | 38.25265 | -0.61268 | 35967 ft | 416 kts | 244° |
| 2026-05-08 06:02 | 38.22899 | -0.67926 | 35967 ft | 416 kts | 243° |
| 2026-05-08 06:02 | 38.20491 | -0.74608 | 35971 ft | 416 kts | 243° |
| 2026-05-08 06:03 | 38.18073 | -0.81289 | 35974 ft | 416 kts | 243° |
| 2026-05-08 06:03 | 38.15653 | -0.87960 | 35979 ft | 415 kts | 243° |
| 2026-05-08 06:04 | 38.13234 | -0.94617 | 35981 ft | 415 kts | 243° |
| 2026-05-08 06:04 | 38.10811 | -1.01268 | 35984 ft | 415 kts | 243° |
| 2026-05-08 06:05 | 38.08386 | -1.07910 | 35975 ft | 415 kts | 243° |
| 2026-05-08 06:05 | 38.05958 | -1.14544 | 35970 ft | 415 kts | 242° |
| 2026-05-08 06:06 | 38.03526 | -1.21176 | 35967 ft | 415 kts | 242° |
| 2026-05-08 06:06 | 38.01091 | -1.27800 | 35967 ft | 414 kts | 242° |
| 2026-05-08 06:07 | 37.98652 | -1.34421 | 35968 ft | 414 kts | 242° |
| 2026-05-08 06:07 | 37.96213 | -1.41030 | 35974 ft | 414 kts | 242° |
| 2026-05-08 06:08 | 37.93771 | -1.47632 | 35961 ft | 414 kts | 242° |
| 2026-05-08 06:08 | 37.91326 | -1.54227 | 35980 ft | 414 kts | 242° |
| 2026-05-08 06:09 | 37.88878 | -1.60817 | 36000 ft | 414 kts | 242° |
| 2026-05-08 06:09 | 37.86424 | -1.67402 | 36004 ft | 414 kts | 242° |
| 2026-05-08 06:10 | 37.83964 | -1.73984 | 36005 ft | 414 kts | 242° |
| 2026-05-08 06:10 | 37.81502 | -1.80561 | 36015 ft | 414 kts | 242° |
| 2026-05-08 06:11 | 37.79035 | -1.87141 | 36009 ft | 414 kts | 242° |
| 2026-05-08 06:11 | 37.76582 | -1.93667 | 36010 ft | 414 kts | 242° |
| 2026-05-08 06:12 | 37.74111 | -2.00225 | 36016 ft | 412 kts | 241° |
| 2026-05-08 06:12 | 37.71640 | -2.06770 | 36015 ft | 413 kts | 241° |
| 2026-05-08 06:13 | 37.69168 | -2.13307 | 36009 ft | 412 kts | 241° |
| 2026-05-08 06:13 | 37.66692 | -2.19845 | 36008 ft | 413 kts | 241° |
| 2026-05-08 06:14 | 37.64203 | -2.26392 | 36012 ft | 414 kts | 241° |
| 2026-05-08 06:14 | 37.61710 | -2.32948 | 36011 ft | 415 kts | 241° |
| 2026-05-08 06:15 | 37.59209 | -2.39507 | 36001 ft | 415 kts | 241° |
| 2026-05-08 06:15 | 37.56703 | -2.46067 | 35999 ft | 415 kts | 241° |
| 2026-05-08 06:16 | 37.54192 | -2.52628 | 35999 ft | 416 kts | 241° |
| 2026-05-08 06:16 | 37.51678 | -2.59183 | 35997 ft | 416 kts | 241° |
| 2026-05-08 06:17 | 37.47893 | -2.69026 | 35992 ft | 417 kts | 241° |
| 2026-05-08 06:17 | 37.45362 | -2.75590 | 35985 ft | 417 kts | 241° |
| 2026-05-08 06:18 | 37.42829 | -2.82146 | 35988 ft | 417 kts | 241° |
| 2026-05-08 06:18 | 37.40293 | -2.88699 | 35988 ft | 417 kts | 241° |
| 2026-05-08 06:19 | 37.37748 | -2.95256 | 35988 ft | 417 kts | 241° |
| 2026-05-08 06:19 | 37.35199 | -3.01809 | 35990 ft | 417 kts | 241° |
| 2026-05-08 06:20 | 37.32661 | -3.08322 | 35989 ft | 418 kts | 241° |
| 2026-05-08 06:20 | 37.30102 | -3.14875 | 35973 ft | 418 kts | 241° |
| 2026-05-08 06:21 | 37.27537 | -3.21430 | 35972 ft | 418 kts | 241° |
| 2026-05-08 06:21 | 37.24968 | -3.27980 | 35970 ft | 418 kts | 241° |
| 2026-05-08 06:22 | 37.22395 | -3.34528 | 35971 ft | 418 kts | 241° |
| 2026-05-08 06:22 | 37.19816 | -3.41072 | 35968 ft | 418 kts | 241° |
| 2026-05-08 06:23 | 37.17236 | -3.47609 | 35968 ft | 418 kts | 241° |
| 2026-05-08 06:23 | 37.14650 | -3.54144 | 35967 ft | 418 kts | 241° |
| 2026-05-08 06:24 | 37.12063 | -3.60675 | 35969 ft | 418 kts | 241° |
| 2026-05-08 06:24 | 37.09472 | -3.67199 | 35967 ft | 418 kts | 241° |
| 2026-05-08 06:25 | 37.06878 | -3.73714 | 35969 ft | 418 kts | 241° |
| 2026-05-08 06:25 | 37.04279 | -3.80234 | 35964 ft | 418 kts | 241° |
| 2026-05-08 06:26 | 37.01679 | -3.86738 | 35960 ft | 418 kts | 241° |
| 2026-05-08 06:26 | 36.99074 | -3.93239 | 35961 ft | 418 kts | 241° |
| 2026-05-08 06:27 | 36.96465 | -3.99740 | 35955 ft | 418 kts | 241° |
| 2026-05-08 06:27 | 36.93852 | -4.06238 | 35956 ft | 418 kts | 241° |
| 2026-05-08 06:28 | 36.91253 | -4.12687 | 35953 ft | 419 kts | 241° |
| 2026-05-08 06:28 | 36.88632 | -4.19180 | 35952 ft | 418 kts | 241° |
| 2026-05-08 06:29 | 36.86008 | -4.25666 | 35957 ft | 418 kts | 241° |
| 2026-05-08 06:29 | 36.83383 | -4.32137 | 35966 ft | 417 kts | 241° |
| 2026-05-08 06:30 | 36.80902 | -4.38686 | 35965 ft | 418 kts | 246° |
| 2026-05-08 06:30 | 36.78932 | -4.45519 | 35962 ft | 419 kts | 248° |
| 2026-05-08 06:31 | 36.76947 | -4.52357 | 35965 ft | 419 kts | 248° |
| 2026-05-08 06:31 | 36.74950 | -4.59185 | 35964 ft | 419 kts | 247° |
| 2026-05-08 06:32 | 36.72949 | -4.66015 | 35964 ft | 419 kts | 248° |
| 2026-05-08 06:32 | 36.70946 | -4.72836 | 35960 ft | 419 kts | 248° |
| 2026-05-08 06:33 | 36.68938 | -4.79655 | 35955 ft | 418 kts | 248° |
| 2026-05-08 06:33 | 36.66933 | -4.86450 | 35955 ft | 418 kts | 248° |
| 2026-05-08 06:34 | 36.64926 | -4.93239 | 35957 ft | 417 kts | 248° |
| 2026-05-08 06:34 | 36.62914 | -5.00020 | 35952 ft | 417 kts | 248° |
| 2026-05-08 06:35 | 36.60902 | -5.06791 | 35955 ft | 417 kts | 248° |
| 2026-05-08 06:35 | 36.58886 | -5.13557 | 35956 ft | 417 kts | 248° |
| 2026-05-08 06:36 | 36.56880 | -5.20273 | 35958 ft | 417 kts | 248° |
| 2026-05-08 06:36 | 36.54857 | -5.27029 | 35951 ft | 416 kts | 248° |
| 2026-05-08 06:37 | 36.52834 | -5.33770 | 35954 ft | 416 kts | 248° |
| 2026-05-08 06:37 | 36.50761 | -5.40470 | 35963 ft | 415 kts | 245° |
| 2026-05-08 06:38 | 36.48063 | -5.46778 | 35959 ft | 413 kts | 239° |
| 2026-05-08 06:38 | 36.45141 | -5.52919 | 35960 ft | 412 kts | 239° |
| 2026-05-08 06:39 | 36.42241 | -5.59057 | 35961 ft | 412 kts | 240° |
| 2026-05-08 06:39 | 36.39338 | -5.65192 | 35958 ft | 412 kts | 239° |
| 2026-05-08 06:40 | 36.36436 | -5.71307 | 35963 ft | 411 kts | 240° |
| 2026-05-08 06:40 | 36.33536 | -5.77410 | 35964 ft | 410 kts | 239° |
| 2026-05-08 06:41 | 36.30637 | -5.83496 | 35970 ft | 409 kts | 239° |
| 2026-05-08 06:41 | 36.27740 | -5.89568 | 35966 ft | 409 kts | 239° |
| 2026-05-08 06:42 | 36.24844 | -5.95627 | 35951 ft | 408 kts | 239° |
| 2026-05-08 06:42 | 36.21590 | -6.01390 | 35954 ft | 409 kts | 234° |
| 2026-05-08 06:43 | 36.18138 | -6.06980 | 35952 ft | 408 kts | 234° |
| 2026-05-08 06:43 | 36.15281 | -6.11629 | 35949 ft | 408 kts | 234° |
| 2026-05-08 06:44 | 36.11845 | -6.17215 | 35953 ft | 408 kts | 234° |
| 2026-05-08 06:44 | 36.08407 | -6.22794 | 35950 ft | 408 kts | 234° |
| 2026-05-08 06:45 | 36.04967 | -6.28365 | 35953 ft | 407 kts | 234° |
| 2026-05-08 06:45 | 36.01526 | -6.33928 | 35966 ft | 407 kts | 234° |
| 2026-05-08 06:46 | 35.98085 | -6.39483 | 35969 ft | 407 kts | 234° |
| 2026-05-08 06:46 | 35.94641 | -6.45033 | 35944 ft | 407 kts | 234° |
| 2026-05-08 06:47 | 35.91194 | -6.50582 | 35934 ft | 407 kts | 234° |
| 2026-05-08 06:47 | 35.87746 | -6.56124 | 35931 ft | 407 kts | 234° |
| 2026-05-08 06:48 | 35.84321 | -6.61622 | 35939 ft | 407 kts | 234° |
| 2026-05-08 06:48 | 35.80866 | -6.67155 | 35962 ft | 407 kts | 234° |
| 2026-05-08 06:49 | 35.77407 | -6.72681 | 35962 ft | 407 kts | 234° |
| 2026-05-08 06:49 | 35.73951 | -6.78202 | 35953 ft | 407 kts | 234° |
| 2026-05-08 06:50 | 35.70491 | -6.83719 | 35954 ft | 407 kts | 234° |
| 2026-05-08 06:50 | 35.67030 | -6.89228 | 35951 ft | 407 kts | 234° |
| 2026-05-08 06:51 | 35.63566 | -6.94731 | 35952 ft | 407 kts | 234° |
| 2026-05-08 06:51 | 35.60100 | -7.00229 | 35957 ft | 407 kts | 234° |
| 2026-05-08 06:52 | 35.56635 | -7.05717 | 35955 ft | 406 kts | 234° |
| 2026-05-08 06:52 | 35.53167 | -7.11201 | 35956 ft | 406 kts | 234° |
| 2026-05-08 06:53 | 35.49699 | -7.16677 | 35954 ft | 406 kts | 234° |
| 2026-05-08 06:53 | 35.46231 | -7.22143 | 35953 ft | 406 kts | 234° |
| 2026-05-08 06:54 | 35.42755 | -7.27614 | 35955 ft | 406 kts | 234° |
| 2026-05-08 06:54 | 35.39282 | -7.33072 | 35959 ft | 406 kts | 234° |
| 2026-05-08 06:55 | 35.35808 | -7.38524 | 35956 ft | 406 kts | 234° |
| 2026-05-08 06:55 | 35.32328 | -7.43975 | 35958 ft | 406 kts | 234° |
| 2026-05-08 06:56 | 35.28851 | -7.49413 | 35958 ft | 406 kts | 234° |
| 2026-05-08 06:56 | 35.25368 | -7.54852 | 35957 ft | 406 kts | 234° |
| 2026-05-08 06:57 | 35.21884 | -7.60284 | 35956 ft | 406 kts | 234° |
| 2026-05-08 06:57 | 35.18403 | -7.65704 | 35962 ft | 405 kts | 234° |
| 2026-05-08 06:58 | 35.14942 | -7.71083 | 35960 ft | 405 kts | 234° |
| 2026-05-08 06:58 | 35.11459 | -7.76490 | 35957 ft | 405 kts | 234° |
| 2026-05-08 06:59 | 35.07973 | -7.81891 | 35957 ft | 405 kts | 234° |
| 2026-05-08 06:59 | 35.04489 | -7.87281 | 35960 ft | 404 kts | 234° |
| 2026-05-08 07:00 | 35.01003 | -7.92666 | 35960 ft | 404 kts | 234° |
| 2026-05-08 07:00 | 34.97518 | -7.98043 | 35960 ft | 404 kts | 234° |
| 2026-05-08 07:01 | 34.94030 | -8.03413 | 35958 ft | 403 kts | 234° |
| 2026-05-08 07:01 | 34.90548 | -8.08768 | 35960 ft | 403 kts | 234° |
| 2026-05-08 07:02 | 34.87066 | -8.14114 | 35958 ft | 403 kts | 234° |
| 2026-05-08 07:02 | 34.83583 | -8.19453 | 35959 ft | 402 kts | 234° |
| 2026-05-08 07:03 | 34.80104 | -8.24779 | 35961 ft | 402 kts | 234° |
| 2026-05-08 07:03 | 34.76629 | -8.30090 | 35963 ft | 401 kts | 235° |
| 2026-05-08 07:04 | 34.73155 | -8.35392 | 35963 ft | 400 kts | 235° |
| 2026-05-08 07:04 | 34.69682 | -8.40685 | 35960 ft | 400 kts | 235° |
| 2026-05-08 07:05 | 34.66209 | -8.45968 | 35960 ft | 400 kts | 235° |
| 2026-05-08 07:05 | 34.62739 | -8.51240 | 35961 ft | 399 kts | 235° |
| 2026-05-08 07:06 | 34.59266 | -8.56509 | 35962 ft | 399 kts | 235° |
| 2026-05-08 07:06 | 34.55799 | -8.61761 | 35965 ft | 399 kts | 235° |
| 2026-05-08 07:07 | 34.52333 | -8.67003 | 35960 ft | 398 kts | 235° |
| 2026-05-08 07:07 | 34.48868 | -8.72236 | 35960 ft | 398 kts | 235° |
| 2026-05-08 07:08 | 34.45336 | -8.77399 | 35959 ft | 399 kts | 232° |
| 2026-05-08 07:08 | 34.41269 | -8.82015 | 35960 ft | 404 kts | 225° |
| 2026-05-08 07:09 | 34.36848 | -8.86217 | 35961 ft | 404 kts | 224° |
| 2026-05-08 07:09 | 34.32449 | -8.90439 | 35963 ft | 403 kts | 224° |
| 2026-05-08 07:10 | 34.28057 | -8.94657 | 35962 ft | 403 kts | 224° |
| 2026-05-08 07:10 | 34.23668 | -8.98863 | 35960 ft | 403 kts | 224° |
| 2026-05-08 07:11 | 34.19278 | -9.03062 | 35957 ft | 402 kts | 224° |
| 2026-05-08 07:11 | 34.14918 | -9.07227 | 35959 ft | 402 kts | 225° |
| 2026-05-08 07:12 | 34.10531 | -9.11413 | 35966 ft | 402 kts | 225° |
| 2026-05-08 07:12 | 34.06146 | -9.15591 | 35973 ft | 401 kts | 225° |
| 2026-05-08 07:13 | 34.01760 | -9.19764 | 35962 ft | 401 kts | 225° |
| 2026-05-08 07:13 | 33.97379 | -9.23926 | 35959 ft | 401 kts | 225° |